createdAt,value
2017-12-14T00:00:08.839Z,98643.14
2017-12-14T00:02:11.944Z,98645.42
2017-12-14T00:04:15.008Z,98649.89
2017-12-14T00:06:23.764Z,98640.55
2017-12-14T00:08:32.520Z,98638.38
2017-12-14T00:10:41.143Z,98644.72
2017-12-14T00:12:49.732Z,98632.57
2017-12-14T00:14:58.535Z,98639.32
2017-12-14T00:17:01.633Z,98634.86
2017-12-14T00:19:04.695Z,98631.22
2017-12-14T00:21:07.823Z,98629.45
2017-12-14T00:23:10.825Z,98632.16
2017-12-14T00:25:13.285Z,98629.45
2017-12-14T00:27:16.387Z,98635.39
2017-12-14T00:29:19.420Z,98634.45
2017-12-14T00:31:22.437Z,98624.17
2017-12-14T00:33:25.586Z,98628.63
2017-12-14T00:35:28.619Z,98619.71
2017-12-14T00:37:31.694Z,98614.87
2017-12-14T00:39:34.884Z,98611.61
2017-12-14T00:41:37.950Z,98619.30
2017-12-14T00:43:45.913Z,98618.10
2017-12-14T00:45:49.009Z,98599.73
2017-12-14T00:47:52.020Z,98602.43
2017-12-14T00:49:55.036Z,98618.22
2017-12-14T00:51:58.109Z,98599.84
2017-12-14T00:54:01.171Z,98625.38
2017-12-14T00:56:04.253Z,98628.61
2017-12-14T00:58:07.273Z,98642.11
2017-12-14T01:00:10.320Z,98639.00
2017-12-14T01:02:13.365Z,98648.03
2017-12-14T01:04:16.400Z,98640.76
2017-12-14T01:06:19.454Z,98641.70
2017-12-14T01:08:22.448Z,98634.53
2017-12-14T01:10:25.489Z,98644.92
2017-12-14T01:12:28.612Z,98643.16
2017-12-14T01:14:31.623Z,98628.72
2017-12-14T01:16:34.789Z,98623.06
2017-12-14T01:18:37.978Z,98621.30
2017-12-14T01:20:40.971Z,98599.70
2017-12-14T01:22:44.033Z,98589.84
2017-12-14T01:24:47.108Z,98582.68
2017-12-14T01:26:50.212Z,98577.69
2017-12-14T01:28:53.298Z,98569.59
2017-12-14T01:30:56.293Z,98572.41
2017-12-14T01:32:59.307Z,98567.01
2017-12-14T01:35:02.368Z,98571.05
2017-12-14T01:37:05.554Z,98582.27
2017-12-14T01:39:08.560Z,98593.06
2017-12-14T01:41:11.736Z,98593.59
2017-12-14T01:43:14.831Z,98600.34
2017-12-14T01:45:17.976Z,98598.58
2017-12-14T01:47:21.000Z,98595.88
2017-12-14T01:49:24.020Z,98594.65
2017-12-14T01:51:27.071Z,98596.82
2017-12-14T01:53:30.117Z,98596.41
2017-12-14T01:55:33.135Z,98589.25
2017-12-14T01:57:36.167Z,98589.25
2017-12-14T01:59:39.257Z,98591.28
2017-12-14T02:01:42.289Z,98591.13
2017-12-14T02:03:45.303Z,98584.79
2017-12-14T02:05:48.343Z,98576.84
2017-12-14T02:07:51.377Z,98576.84
2017-12-14T02:09:54.395Z,98572.38
2017-12-14T02:11:57.424Z,98564.69
2017-12-14T02:14:00.550Z,98566.56
2017-12-14T02:16:03.556Z,98554.83
2017-12-14T02:18:06.611Z,98548.61
2017-12-14T02:20:09.654Z,98547.79
2017-12-14T02:22:12.719Z,98541.45
2017-12-14T02:24:15.812Z,98544.97
2017-12-14T02:26:18.877Z,98541.98
2017-12-14T02:28:21.929Z,98547.14
2017-12-14T02:30:24.992Z,98543.33
2017-12-14T02:32:28.099Z,98545.62
2017-12-14T02:34:31.162Z,98544.67
2017-12-14T02:36:34.254Z,98541.04
2017-12-14T02:38:37.287Z,98543.73
2017-12-14T02:40:40.307Z,98542.91
2017-12-14T02:42:43.451Z,98545.09
2017-12-14T02:44:46.480Z,98556.00
2017-12-14T02:46:49.500Z,98568.68
2017-12-14T02:48:52.676Z,98571.38
2017-12-14T02:50:55.693Z,98578.95
2017-12-14T02:52:58.819Z,98594.73
2017-12-14T02:55:01.927Z,98604.59
2017-12-14T02:57:05.058Z,98591.25
2017-12-14T02:59:08.087Z,98612.70
2017-12-14T03:01:11.132Z,98633.47
2017-12-14T03:03:14.152Z,98629.05
2017-12-14T03:05:17.194Z,98629.98
2017-12-14T03:07:20.245Z,98616.48
2017-12-14T03:09:23.289Z,98610.14
2017-12-14T03:11:26.350Z,98596.23
2017-12-14T03:13:29.486Z,98589.48
2017-12-14T03:15:32.700Z,98588.55
2017-12-14T03:17:35.726Z,98589.48
2017-12-14T03:19:38.790Z,98568.83
2017-12-14T03:21:41.820Z,98589.60
2017-12-14T03:23:44.832Z,98584.61
2017-12-14T03:25:47.879Z,98585.55
2017-12-14T03:27:50.904Z,98573.00
2017-12-14T03:29:54.001Z,98574.76
2017-12-14T03:31:57.101Z,98574.76
2017-12-14T03:34:00.126Z,98573.94
2017-12-14T03:36:03.383Z,98576.52
2017-12-14T03:38:06.423Z,98576.75
2017-12-14T03:40:09.481Z,98584.84
2017-12-14T03:42:12.509Z,98584.84
2017-12-14T03:44:15.696Z,98590.25
2017-12-14T03:46:18.732Z,98586.20
2017-12-14T03:48:21.745Z,98596.58
2017-12-14T03:50:24.800Z,98594.83
2017-12-14T03:52:27.925Z,98590.77
2017-12-14T03:54:30.950Z,98601.31
2017-12-14T03:56:33.984Z,98594.97
2017-12-14T03:58:37.008Z,98595.91
2017-12-14T04:00:40.039Z,98594.15
2017-12-14T04:02:43.548Z,98590.63
2017-12-14T04:04:46.595Z,98591.04
2017-12-14T04:06:49.682Z,98591.98
2017-12-14T04:08:52.730Z,98598.31
2017-12-14T04:10:55.752Z,98596.97
2017-12-14T04:12:58.936Z,98602.36
2017-12-14T04:15:01.969Z,98604.24
2017-12-14T04:17:05.002Z,98613.28
2017-12-14T04:19:08.037Z,98610.98
2017-12-14T04:21:11.110Z,98612.34
2017-12-14T04:23:14.202Z,98615.56
2017-12-14T04:25:17.275Z,98622.20
2017-12-14T04:27:20.427Z,98619.20
2017-12-14T04:29:23.433Z,98617.44
2017-12-14T04:31:26.594Z,98620.55
2017-12-14T04:33:29.612Z,98623.25
2017-12-14T04:35:32.678Z,98623.81
2017-12-14T04:37:35.853Z,98630.56
2017-12-14T04:39:38.895Z,98638.66
2017-12-14T04:41:41.999Z,98652.53
2017-12-14T04:43:45.104Z,98654.45
2017-12-14T04:45:48.268Z,98655.80
2017-12-14T04:47:51.284Z,98649.57
2017-12-14T04:49:54.421Z,98657.67
2017-12-14T04:51:57.551Z,98666.18
2017-12-14T04:54:00.628Z,98667.64
2017-12-14T04:56:03.624Z,98672.11
2017-12-14T04:58:06.695Z,98673.98
2017-12-14T05:00:09.781Z,98690.59
2017-12-14T05:02:12.776Z,98691.53
2017-12-14T05:04:15.951Z,98691.94
2017-12-14T05:06:18.969Z,98695.98
2017-12-14T05:08:22.120Z,98712.71
2017-12-14T05:10:25.182Z,98709.60
2017-12-14T05:12:28.310Z,98718.11
2017-12-14T05:14:31.292Z,98719.87
2017-12-14T05:16:34.458Z,98724.86
2017-12-14T05:18:37.492Z,98732.95
2017-12-14T05:20:40.509Z,98738.77
2017-12-14T05:22:43.618Z,98730.78
2017-12-14T05:24:46.728Z,98735.24
2017-12-14T05:26:49.778Z,98743.87
2017-12-14T05:28:52.863Z,98748.85
2017-12-14T05:30:55.950Z,98758.19
2017-12-14T05:32:59.031Z,98764.52
2017-12-14T05:35:02.073Z,98768.98
2017-12-14T05:37:05.115Z,98782.59
2017-12-14T05:39:08.179Z,98790.99
2017-12-14T05:41:11.215Z,98786.64
2017-12-14T05:43:14.289Z,98809.17
2017-12-14T05:45:17.539Z,98807.83
2017-12-14T05:47:20.662Z,98818.25
2017-12-14T05:49:23.692Z,98818.09
2017-12-14T05:51:26.723Z,98815.92
2017-12-14T05:53:29.982Z,98823.09
2017-12-14T05:55:32.997Z,98823.23
2017-12-14T05:57:36.105Z,98826.34
2017-12-14T05:59:39.335Z,98835.37
2017-12-14T06:01:42.328Z,98851.58
2017-12-14T06:03:45.359Z,98849.41
2017-12-14T06:05:48.490Z,98853.86
2017-12-14T06:07:51.572Z,98869.91
2017-12-14T06:09:54.570Z,98873.70
2017-12-14T06:11:57.685Z,98883.55
2017-12-14T06:14:00.799Z,98877.74
2017-12-14T06:16:04.756Z,98893.53
2017-12-14T06:18:07.798Z,98898.92
2017-12-14T06:20:10.833Z,98900.80
2017-12-14T06:22:13.852Z,98903.39
2017-12-14T06:24:16.943Z,98912.02
2017-12-14T06:26:19.961Z,98928.20
2017-12-14T06:28:22.995Z,98924.45
2017-12-14T06:30:26.035Z,98932.25
2017-12-14T06:32:29.136Z,98929.97
2017-12-14T06:34:32.284Z,98941.70
2017-12-14T06:36:35.473Z,98940.77
2017-12-14T06:38:38.555Z,98949.39
2017-12-14T06:40:41.672Z,98950.22
2017-12-14T06:42:44.772Z,98955.73
2017-12-14T06:44:47.888Z,98960.60
2017-12-14T06:46:50.980Z,98970.05
2017-12-14T06:48:54.141Z,98968.28
2017-12-14T06:50:57.185Z,98974.51
2017-12-14T06:53:00.248Z,98970.05
2017-12-14T06:55:03.284Z,98975.03
2017-12-14T06:57:06.317Z,98976.80
2017-12-14T06:59:09.383Z,98983.55
2017-12-14T07:01:12.487Z,98993.41
2017-12-14T07:03:28.590Z,98993.41
2017-12-14T07:05:31.667Z,98989.88
2017-12-14T07:07:34.751Z,98990.70
2017-12-14T07:09:37.764Z,98987.59
2017-12-14T07:11:40.914Z,98993.41
2017-12-14T07:13:44.130Z,98998.91
2017-12-14T07:15:47.139Z,98999.02
2017-12-14T07:17:50.161Z,99004.16
2017-12-14T07:19:53.357Z,99009.66
2017-12-14T07:21:56.426Z,99003.55
2017-12-14T07:23:59.529Z,99009.06
2017-12-14T07:26:02.548Z,99010.41
2017-12-14T07:28:05.693Z,99020.00
2017-12-14T07:30:08.803Z,99025.81
2017-12-14T07:32:11.953Z,99024.05
2017-12-14T07:34:14.987Z,99029.86
2017-12-14T07:36:18.055Z,99029.72
2017-12-14T07:38:21.101Z,99024.87
2017-12-14T07:40:24.257Z,99028.37
2017-12-14T07:42:39.267Z,99023.38
2017-12-14T07:44:42.297Z,99027.32
2017-12-14T07:46:57.249Z,99028.14
2017-12-14T07:49:12.451Z,99025.03
2017-12-14T07:51:15.514Z,99024.63
2017-12-14T07:53:18.528Z,99023.69
2017-12-14T07:55:21.549Z,99027.63
2017-12-14T07:57:24.964Z,99021.29
2017-12-14T07:59:27.996Z,99032.09
2017-12-14T08:01:31.032Z,99023.47
2017-12-14T08:03:34.076Z,99032.91
2017-12-14T08:05:37.160Z,99028.30
2017-12-14T08:07:40.188Z,99036.81
2017-12-14T08:09:43.227Z,99037.34
2017-12-14T08:11:46.432Z,99034.94
2017-12-14T08:13:49.606Z,99026.32
2017-12-14T08:15:52.785Z,99026.21
2017-12-14T08:17:55.849Z,99024.86
2017-12-14T08:19:58.859Z,99028.39
2017-12-14T08:22:01.934Z,99021.91
2017-12-14T08:24:05.064Z,99028.55
2017-12-14T08:26:08.079Z,99024.38
2017-12-14T08:28:11.123Z,99020.75
2017-12-14T08:30:14.207Z,99016.70
2017-12-14T08:32:17.297Z,99025.21
2017-12-14T08:34:20.331Z,99026.97
2017-12-14T08:36:23.351Z,99034.14
2017-12-14T08:38:26.468Z,99036.12
2017-12-14T08:40:29.740Z,99037.88
2017-12-14T08:42:32.873Z,99032.07
2017-12-14T08:44:36.027Z,99028.55
2017-12-14T08:46:39.171Z,99032.59
2017-12-14T08:48:42.309Z,99048.37
2017-12-14T08:50:45.468Z,99048.37
2017-12-14T08:52:48.698Z,99048.79
2017-12-14T08:54:51.743Z,99043.39
2017-12-14T08:56:54.819Z,99047.86
2017-12-14T08:58:57.970Z,99043.39
2017-12-14T09:01:01.055Z,99048.69
2017-12-14T09:03:04.087Z,99036.95
2017-12-14T09:05:07.181Z,99045.05
2017-12-14T09:07:10.205Z,99043.58
2017-12-14T09:09:13.228Z,99048.31
2017-12-14T09:11:16.269Z,99049.14
2017-12-14T09:13:19.297Z,99052.14
2017-12-14T09:15:23.270Z,99048.92
2017-12-14T09:17:26.363Z,99058.23
2017-12-14T09:19:29.373Z,99055.00
2017-12-14T09:21:32.400Z,99060.18
2017-12-14T09:23:35.481Z,99063.30
2017-12-14T09:25:38.603Z,99057.23
2017-12-14T09:27:41.665Z,99068.85
2017-12-14T09:29:44.697Z,99066.45
2017-12-14T09:31:47.758Z,99061.22
2017-12-14T09:33:50.849Z,99064.33
2017-12-14T09:35:53.888Z,99072.63
2017-12-14T09:37:56.985Z,99068.84
2017-12-14T09:39:59.976Z,99073.61
2017-12-14T09:42:03.094Z,99076.47
2017-12-14T09:44:06.139Z,99082.58
2017-12-14T09:46:09.131Z,99087.34
2017-12-14T09:48:12.260Z,99078.58
2017-12-14T09:50:15.388Z,99080.34
2017-12-14T09:52:18.512Z,99091.72
2017-12-14T09:54:21.700Z,99081.73
2017-12-14T09:56:24.748Z,99071.65
2017-12-14T09:58:27.835Z,99058.86
2017-12-14T10:00:31.188Z,99075.75
2017-12-14T10:02:34.298Z,99074.28
2017-12-14T10:04:37.355Z,99075.38
2017-12-14T10:06:40.406Z,99072.05
2017-12-14T10:08:43.466Z,99062.78
2017-12-14T10:10:46.544Z,99076.55
2017-12-14T10:12:49.597Z,99072.92
2017-12-14T10:14:52.709Z,99068.79
2017-12-14T10:16:55.720Z,99071.79
2017-12-14T10:18:58.827Z,99070.85
2017-12-14T10:21:02.075Z,99071.53
2017-12-14T10:23:05.232Z,99063.43
2017-12-14T10:25:08.272Z,99058.03
2017-12-14T10:27:11.340Z,99064.26
2017-12-14T10:29:14.352Z,99064.56
2017-12-14T10:31:17.468Z,99055.52
2017-12-14T10:33:20.601Z,99061.71
2017-12-14T10:35:23.807Z,99060.66
2017-12-14T10:37:26.951Z,99055.15
2017-12-14T10:39:29.980Z,99057.73
2017-12-14T10:41:33.046Z,99048.55
2017-12-14T10:43:36.096Z,99047.09
2017-12-14T10:45:39.111Z,99044.69
2017-12-14T10:47:42.192Z,99042.81
2017-12-14T10:49:45.240Z,99040.94
2017-12-14T10:51:48.384Z,99047.13
2017-12-14T10:53:51.425Z,99044.31
2017-12-14T10:55:54.563Z,99042.55
2017-12-14T10:57:57.591Z,99041.80
2017-12-14T11:00:00.600Z,99043.68
2017-12-14T11:02:03.708Z,99053.81
2017-12-14T11:04:06.846Z,99061.92
2017-12-14T11:06:10.135Z,99051.83
2017-12-14T11:08:13.164Z,99052.77
2017-12-14T11:10:16.409Z,99050.06
2017-12-14T11:12:19.610Z,99050.89
2017-12-14T11:14:22.791Z,99052.12
2017-12-14T11:16:25.924Z,99048.91
2017-12-14T11:18:28.982Z,99051.61
2017-12-14T11:20:32.142Z,99043.88
2017-12-14T11:22:35.150Z,99045.12
2017-12-14T11:24:38.256Z,99054.05
2017-12-14T11:26:41.497Z,99059.87
2017-12-14T11:28:44.568Z,99035.02
2017-12-14T11:30:47.596Z,99036.90
2017-12-14T11:32:50.803Z,99032.32
2017-12-14T11:34:53.841Z,99019.63
2017-12-14T11:36:56.897Z,99017.77
2017-12-14T11:38:59.985Z,99017.34
2017-12-14T11:41:03.148Z,99019.48
2017-12-14T11:43:06.272Z,99026.96
2017-12-14T11:45:09.511Z,99026.44
2017-12-14T11:47:12.587Z,99025.72
2017-12-14T11:49:15.776Z,99022.91
2017-12-14T11:51:18.864Z,99023.32
2017-12-14T11:53:22.105Z,99018.73
2017-12-14T11:55:25.273Z,99026.44
2017-12-14T11:57:28.411Z,99022.27
2017-12-14T11:59:31.439Z,99025.80
2017-12-14T12:01:34.546Z,99016.72
2017-12-14T12:03:37.630Z,99024.83
2017-12-14T12:05:40.648Z,99023.47
2017-12-14T12:07:43.736Z,99026.17
2017-12-14T12:09:46.791Z,99026.59
2017-12-14T12:11:55.599Z,99026.73
2017-12-14T12:13:58.639Z,99020.39
2017-12-14T12:16:01.692Z,99018.63
2017-12-14T12:18:04.792Z,99018.63
2017-12-14T12:20:08.041Z,99035.63
2017-12-14T12:22:11.227Z,99031.58
2017-12-14T12:24:14.286Z,99027.94
2017-12-14T12:26:17.283Z,99028.88
2017-12-14T12:28:20.346Z,99021.33
2017-12-14T12:30:23.374Z,99022.68
2017-12-14T12:32:26.405Z,99028.09
2017-12-14T12:34:29.470Z,99031.20
2017-12-14T12:36:32.605Z,99025.37
2017-12-14T12:38:35.739Z,99022.12
2017-12-14T12:40:38.853Z,99026.17
2017-12-14T12:42:42.018Z,99032.41
2017-12-14T12:44:45.160Z,99022.84
2017-12-14T12:46:48.243Z,99017.43
2017-12-14T12:48:51.257Z,99010.03
2017-12-14T12:50:54.343Z,99017.06
2017-12-14T12:52:57.702Z,99009.36
2017-12-14T12:55:00.708Z,99007.90
2017-12-14T12:57:03.880Z,99014.66
2017-12-14T12:59:06.998Z,99014.24
2017-12-14T13:01:10.032Z,99014.66
2017-12-14T13:03:13.226Z,99006.14
2017-12-14T13:05:16.515Z,99011.13
2017-12-14T13:07:19.529Z,99006.96
2017-12-14T13:09:22.582Z,99007.90
2017-12-14T13:11:25.655Z,99009.66
2017-12-14T13:13:28.856Z,99014.66
2017-12-14T13:15:31.880Z,99014.24
2017-12-14T13:17:35.025Z,99014.24
2017-12-14T13:19:38.115Z,99011.66
2017-12-14T13:21:41.128Z,99019.23
2017-12-14T13:23:44.228Z,99019.23
2017-12-14T13:25:47.266Z,99011.54
2017-12-14T13:27:50.356Z,98998.85
2017-12-14T13:29:53.531Z,98999.80
2017-12-14T13:31:56.564Z,99003.43
2017-12-14T13:33:59.596Z,99005.61
2017-12-14T13:36:02.896Z,99000.73
2017-12-14T13:38:05.937Z,98993.56
2017-12-14T13:40:08.988Z,98996.56
2017-12-14T13:42:12.162Z,98999.27
2017-12-14T13:44:15.177Z,98996.45
2017-12-14T13:46:18.227Z,98993.86
2017-12-14T13:48:21.436Z,98994.27
2017-12-14T13:50:24.536Z,99003.62
2017-12-14T13:52:27.574Z,99003.20
2017-12-14T13:54:31.105Z,98997.50
2017-12-14T13:56:34.350Z,99001.56
2017-12-14T13:58:37.616Z,99004.67
2017-12-14T14:00:40.678Z,99001.97
2017-12-14T14:02:43.708Z,99006.96
2017-12-14T14:04:46.736Z,99006.96
2017-12-14T14:06:49.800Z,99003.84
2017-12-14T14:08:52.864Z,98994.39
2017-12-14T14:10:55.929Z,99001.56
2017-12-14T14:12:58.992Z,99001.03
2017-12-14T14:15:02.110Z,98997.91
2017-12-14T14:17:05.140Z,98991.69
2017-12-14T14:19:08.381Z,98995.33
2017-12-14T14:21:11.467Z,98991.69
2017-12-14T14:23:14.552Z,98990.33
2017-12-14T14:25:17.667Z,98989.09
2017-12-14T14:27:20.822Z,98982.07
2017-12-14T14:29:23.829Z,98973.97
2017-12-14T14:31:26.895Z,98977.46
2017-12-14T14:33:30.017Z,98978.96
2017-12-14T14:35:33.084Z,98970.44
2017-12-14T14:37:36.161Z,98966.91
2017-12-14T14:39:39.269Z,98958.80
2017-12-14T14:41:42.326Z,98967.85
2017-12-14T14:43:45.384Z,98957.98
2017-12-14T14:45:48.408Z,98966.61
2017-12-14T14:47:51.501Z,98969.20
2017-12-14T14:49:54.579Z,98965.67
2017-12-14T14:51:57.742Z,98967.55
2017-12-14T14:54:01.221Z,98967.81
2017-12-14T14:56:04.274Z,98974.27
2017-12-14T14:58:07.322Z,98980.45
2017-12-14T15:00:10.524Z,98978.92
2017-12-14T15:02:13.625Z,98979.29
2017-12-14T15:04:16.658Z,98975.20
2017-12-14T15:06:19.844Z,98973.66
2017-12-14T15:08:22.986Z,98974.03
2017-12-14T15:10:26.110Z,98979.25
2017-12-14T15:12:29.195Z,98973.17
2017-12-14T15:14:32.280Z,98961.65
2017-12-14T15:16:35.287Z,98959.77
2017-12-14T15:18:38.345Z,98957.04
2017-12-14T15:20:41.520Z,98953.81
2017-12-14T15:22:44.552Z,98957.45
2017-12-14T15:24:47.593Z,98956.63
2017-12-14T15:26:50.684Z,98961.77
2017-12-14T15:28:53.692Z,98961.58
2017-12-14T15:30:56.806Z,98959.13
2017-12-14T15:32:59.913Z,98959.77
2017-12-14T15:35:02.966Z,98966.94
2017-12-14T15:37:06.087Z,98972.19
2017-12-14T15:39:09.190Z,98968.77
2017-12-14T15:41:12.265Z,98963.07
2017-12-14T15:43:15.325Z,98966.45
2017-12-14T15:45:18.414Z,98973.72
2017-12-14T15:49:25.788Z,98982.84
2017-12-14T15:51:28.832Z,98973.65
2017-12-14T15:53:32.076Z,98972.68
2017-12-14T15:55:35.138Z,98977.70
2017-12-14T15:57:38.202Z,98976.98
2017-12-14T15:59:41.546Z,98971.70
2017-12-14T16:01:44.822Z,98965.36
2017-12-14T16:03:47.896Z,98960.89
2017-12-14T16:05:50.943Z,98962.13
2017-12-14T16:07:53.981Z,98959.84
2017-12-14T16:09:57.035Z,98958.80
2017-12-14T16:12:00.084Z,98956.77
2017-12-14T16:14:03.180Z,98957.63
2017-12-14T16:16:06.236Z,98949.94
2017-12-14T16:18:09.295Z,98949.83
2017-12-14T16:20:12.316Z,98943.48
2017-12-14T16:22:15.460Z,98952.52
2017-12-14T16:24:18.522Z,98944.84
2017-12-14T16:26:21.633Z,98934.97
2017-12-14T16:28:24.700Z,98926.05
2017-12-14T16:30:27.802Z,98926.86
2017-12-14T16:32:30.926Z,98914.56
2017-12-14T16:34:34.015Z,98920.53
2017-12-14T16:36:37.172Z,98913.89
2017-12-14T16:38:40.251Z,98913.48
2017-12-14T16:40:43.298Z,98916.59
2017-12-14T16:42:46.439Z,98908.48
2017-12-14T16:44:49.636Z,98899.56
2017-12-14T16:46:52.676Z,98897.34
2017-12-14T16:48:56.951Z,98892.36
2017-12-14T16:51:00.055Z,98882.08
2017-12-14T16:53:03.100Z,98879.38
2017-12-14T16:55:06.295Z,98879.38
2017-12-14T16:57:09.475Z,98879.91
2017-12-14T16:59:12.597Z,98888.16
2017-12-14T17:01:15.720Z,98880.05
2017-12-14T17:03:18.931Z,98875.18
2017-12-14T17:05:21.998Z,98865.73
2017-12-14T17:07:25.047Z,98864.38
2017-12-14T17:09:28.133Z,98866.66
2017-12-14T17:11:31.180Z,98864.08
2017-12-14T17:13:34.232Z,98861.38
2017-12-14T17:15:37.264Z,98860.02
2017-12-14T17:17:40.356Z,98857.85
2017-12-14T17:19:43.401Z,98859.61
2017-12-14T17:21:46.413Z,98861.91
2017-12-14T17:23:49.579Z,98863.37
2017-12-14T17:25:52.664Z,98857.17
2017-12-14T17:27:55.785Z,98852.30
2017-12-14T17:29:58.830Z,98855.41
2017-12-14T17:32:01.877Z,98859.46
2017-12-14T17:34:04.953Z,98851.88
2017-12-14T17:36:08.082Z,98857.28
2017-12-14T17:38:11.168Z,98857.40
2017-12-14T17:40:14.175Z,98839.84
2017-12-14T17:42:17.260Z,98833.63
2017-12-14T17:44:20.321Z,98828.74
2017-12-14T17:46:23.446Z,98831.86
2017-12-14T17:48:26.777Z,98826.05
2017-12-14T17:50:29.830Z,98822.93
2017-12-14T17:52:32.868Z,98824.28
2017-12-14T17:54:35.892Z,98820.23
2017-12-14T17:56:38.974Z,98816.18
2017-12-14T17:58:42.017Z,98819.84
2017-12-14T18:00:45.084Z,98810.92
2017-12-14T18:02:48.148Z,98814.16
2017-12-14T18:04:51.348Z,98808.75
2017-12-14T18:06:54.911Z,98809.69
2017-12-14T18:08:57.972Z,98807.52
2017-12-14T18:11:01.009Z,98806.58
2017-12-14T18:13:04.119Z,98804.29
2017-12-14T18:15:07.145Z,98802.64
2017-12-14T18:17:10.287Z,98804.41
2017-12-14T18:19:13.475Z,98797.66
2017-12-14T18:21:16.559Z,98793.30
2017-12-14T18:23:19.612Z,98796.42
2017-12-14T18:25:22.667Z,98794.66
2017-12-14T18:27:25.693Z,98795.63
2017-12-14T18:29:28.770Z,98789.81
2017-12-14T18:31:31.931Z,98784.41
2017-12-14T18:33:34.984Z,98788.87
2017-12-14T18:35:38.047Z,98790.34
2017-12-14T18:37:41.087Z,98784.41
2017-12-14T18:39:44.217Z,98785.34
2017-12-14T18:41:47.228Z,98776.42
2017-12-14T18:43:50.329Z,98771.84
2017-12-14T18:45:53.472Z,98774.14
2017-12-14T18:47:56.489Z,98767.50
2017-12-14T18:49:59.536Z,98767.50
2017-12-14T18:52:02.571Z,98768.32
2017-12-14T18:54:05.639Z,98766.86
2017-12-14T18:56:08.717Z,98764.69
2017-12-14T18:58:11.772Z,98765.36
2017-12-14T19:00:14.858Z,98769.70
2017-12-14T19:02:17.881Z,98759.02
2017-12-14T19:04:20.922Z,98759.44
2017-12-14T19:06:24.124Z,98766.06
2017-12-14T19:08:27.298Z,98756.20
2017-12-14T19:10:30.429Z,98756.09
2017-12-14T19:12:33.458Z,98754.73
2017-12-14T19:14:36.596Z,98751.10
2017-12-14T19:16:39.640Z,98754.73
2017-12-14T19:18:42.666Z,98750.84
2017-12-14T19:20:45.764Z,98754.06
2017-12-14T19:22:48.792Z,98751.36
2017-12-14T19:24:51.827Z,98741.80
2017-12-14T19:26:54.872Z,98741.80
2017-12-14T19:28:57.905Z,98742.20
2017-12-14T19:31:00.926Z,98743.03
2017-12-14T19:33:03.979Z,98741.16
2017-12-14T19:35:07.018Z,98729.94
2017-12-14T19:37:10.043Z,98723.60
2017-12-14T19:39:13.194Z,98728.06
2017-12-14T19:41:16.241Z,98716.85
2017-12-14T19:43:19.328Z,98722.66
2017-12-14T19:45:22.607Z,98723.08
2017-12-14T19:47:26.670Z,98718.08
2017-12-14T19:49:30.116Z,98715.38
2017-12-14T19:51:33.398Z,98715.65
2017-12-14T19:53:36.447Z,98713.89
2017-12-14T19:55:39.467Z,98717.41
2017-12-14T19:57:42.510Z,98718.64
2017-12-14T19:59:45.643Z,98715.53
2017-12-14T20:01:48.736Z,98716.06
2017-12-14T20:03:51.785Z,98705.55
2017-12-14T20:05:56.198Z,98695.16
2017-12-14T20:07:59.423Z,98710.84
2017-12-14T20:10:02.525Z,98709.60
2017-12-14T20:12:05.560Z,98709.48
2017-12-14T20:14:08.701Z,98696.39
2017-12-14T20:16:11.775Z,98695.45
2017-12-14T20:18:14.835Z,98698.53
2017-12-14T20:20:17.838Z,98694.11
2017-12-14T20:22:20.937Z,98691.78
2017-12-14T20:24:24.024Z,98692.61
2017-12-14T20:26:27.175Z,98694.37
2017-12-14T20:28:30.204Z,98696.25
2017-12-14T20:30:33.319Z,98694.78
2017-12-14T20:32:36.347Z,98693.02
2017-12-14T20:34:39.630Z,98688.55
2017-12-14T20:36:42.668Z,98693.95
2017-12-14T20:38:45.687Z,98695.30
2017-12-14T20:40:48.740Z,98689.91
2017-12-14T20:42:51.764Z,98690.73
2017-12-14T20:44:54.792Z,98692.08
2017-12-14T20:46:57.866Z,98697.48
2017-12-14T20:49:00.989Z,98706.11
2017-12-14T20:51:04.088Z,98707.78
2017-12-14T20:53:07.111Z,98695.19
2017-12-14T20:55:10.266Z,98686.19
2017-12-14T20:57:13.282Z,98684.50
2017-12-14T20:59:16.349Z,98689.79
2017-12-14T21:01:19.375Z,98694.37
2017-12-14T21:03:22.400Z,98695.72
2017-12-14T21:05:25.455Z,98688.03
2017-12-14T21:07:28.502Z,98693.84
2017-12-14T21:09:31.584Z,98697.48
2017-12-14T21:11:34.637Z,98702.88
2017-12-14T21:13:37.668Z,98701.53
2017-12-14T21:15:40.697Z,98704.76
2017-12-14T21:17:43.778Z,98706.11
2017-12-14T21:19:46.863Z,98696.25
2017-12-14T21:21:49.880Z,98695.72
2017-12-14T21:23:52.940Z,98700.70
2017-12-14T21:25:55.960Z,98696.66
2017-12-14T21:27:58.984Z,98695.30
2017-12-14T21:30:02.030Z,98692.20
2017-12-14T21:32:05.164Z,98690.31
2017-12-14T21:34:08.185Z,98687.20
2017-12-14T21:36:11.231Z,98696.39
2017-12-14T21:38:14.248Z,98687.88
2017-12-14T21:40:17.379Z,98692.75
2017-12-14T21:42:20.412Z,98695.98
2017-12-14T21:44:23.443Z,98689.76
2017-12-14T21:46:26.474Z,98688.82
2017-12-14T21:48:29.533Z,98686.12
2017-12-14T21:50:32.541Z,98678.95
2017-12-14T21:52:35.575Z,98674.37
2017-12-14T21:54:38.723Z,98690.17
2017-12-14T21:56:41.749Z,98681.24
2017-12-14T21:58:44.792Z,98676.38
2017-12-14T22:00:47.837Z,98679.48
2017-12-14T22:02:50.856Z,98668.68
2017-12-14T22:04:53.880Z,98680.95
2017-12-14T22:06:56.987Z,98676.90
2017-12-14T22:09:00.032Z,98675.55
2017-12-14T22:11:03.161Z,98683.23
2017-12-14T22:13:06.193Z,98682.71
2017-12-14T22:15:09.222Z,98679.19
2017-12-14T22:17:12.280Z,98671.91
2017-12-14T22:19:15.330Z,98673.78
2017-12-14T22:21:18.379Z,98673.78
2017-12-14T22:23:21.386Z,98676.08
2017-12-14T22:25:24.478Z,98677.02
2017-12-14T22:27:27.535Z,98674.72
2017-12-14T22:29:30.610Z,98672.17
2017-12-14T22:31:33.715Z,98683.39
2017-12-14T22:33:36.723Z,98678.92
2017-12-14T22:35:39.789Z,98684.73
2017-12-14T22:37:42.835Z,98681.74
2017-12-14T22:39:45.884Z,98678.62
2017-12-14T22:41:49.016Z,98690.66
2017-12-14T22:43:52.045Z,98693.48
2017-12-14T22:45:55.139Z,98687.14
2017-12-14T22:47:58.162Z,98687.26
2017-12-14T22:50:01.354Z,98689.02
2017-12-14T22:52:04.468Z,98685.09
2017-12-14T22:54:07.522Z,98693.19
2017-12-14T22:56:10.566Z,98685.50
2017-12-14T22:58:13.585Z,98687.78
2017-12-14T23:00:16.718Z,98698.59
2017-12-14T23:02:19.780Z,98698.06
2017-12-14T23:04:22.809Z,98704.93
2017-12-14T23:06:25.855Z,98699.11
2017-12-14T23:08:28.907Z,98700.47
2017-12-14T23:10:31.963Z,98712.62
2017-12-14T23:12:35.086Z,98704.66
2017-12-14T23:14:38.177Z,98712.20
2017-12-14T23:16:41.189Z,98712.77
2017-12-14T23:18:44.217Z,98719.52
2017-12-14T23:20:47.266Z,98720.45
2017-12-14T23:22:50.292Z,98715.05
2017-12-14T23:24:53.312Z,98720.98
2017-12-14T23:26:56.359Z,98726.80
2017-12-14T23:28:59.484Z,98723.27
2017-12-14T23:31:02.507Z,98716.52
2017-12-14T23:33:05.586Z,98712.47
2017-12-14T23:35:08.689Z,98711.65
2017-12-14T23:37:11.789Z,98715.70
2017-12-14T23:39:15.245Z,98712.59
2017-12-14T23:41:18.271Z,98713.94
2017-12-14T23:43:21.351Z,98711.35
2017-12-14T23:45:24.433Z,98714.47
2017-12-14T23:47:27.443Z,98711.77
2017-12-14T23:49:30.465Z,98711.35
2017-12-14T23:51:33.552Z,98711.35
2017-12-14T23:53:36.600Z,98713.27
2017-12-14T23:55:39.613Z,98709.21
2017-12-14T23:57:42.791Z,98714.20
2017-12-14T23:59:45.833Z,98707.45
